Time;durP1;ratioP1;P1;durP2;ratioP2;P2;SDS_P1;SDS_P2;PMS_P1;PMS_P2;Temp;Humidity;BMP_temperature;BMP_pressure;BME280_temperature;BME280_humidity;BME280_pressure;Samples;Min_cycle;Max_cycle;Signal;HPM_P1;HPM_P2
2022/01/13 00:01:46;;;;;;;30.23;16.80;;;3.70;99.90;;;;;;5032864;28;20467;-48
2022/01/13 00:04:15;;;;;;;33.57;16.23;;;3.70;99.90;;;;;;5031403;28;20979;-49
2022/01/13 00:06:43;;;;;;;29.20;17.03;;;3.70;99.90;;;;;;5032769;28;20463;-49
2022/01/13 00:09:10;;;;;;;30.73;17.07;;;3.70;99.90;;;;;;5031627;28;20534;-49
2022/01/13 00:11:37;;;;;;;27.67;16.00;;;3.70;99.90;;;;;;5028422;28;20549;-49
2022/01/13 00:14:27;;;;;;;27.10;15.73;;;3.70;99.90;;;;;;5030508;28;20506;-49
2022/01/13 00:20:10;;;;;;;34.93;16.37;;;3.80;99.90;;;;;;4989996;28;20476;-48
2022/01/13 00:22:48;;;;;;;26.10;15.90;;;3.80;99.90;;;;;;4989407;28;20492;-48
2022/01/13 00:25:17;;;;;;;33.80;18.07;;;3.80;99.90;;;;;;5016570;28;20461;-49
2022/01/13 00:27:50;;;;;;;32.33;18.43;;;3.80;99.90;;;;;;5026578;28;20475;-47
2022/01/13 00:30:18;;;;;;;27.50;17.67;;;3.80;99.90;;;;;;5030782;28;20963;-48
2022/01/13 00:32:45;;;;;;;29.57;17.33;;;3.80;99.90;;;;;;5027888;28;20573;-48
2022/01/13 00:35:12;;;;;;;27.57;17.80;;;3.80;99.90;;;;;;5025140;28;20459;-49
2022/01/13 00:37:41;;;;;;;32.30;17.27;;;3.80;99.90;;;;;;5030020;28;20574;-50
2022/01/13 00:40:09;;;;;;;28.70;17.10;;;3.90;99.90;;;;;;5031742;28;20538;-47
2022/01/13 00:42:36;;;;;;;27.97;16.63;;;3.90;99.90;;;;;;5029649;28;20490;-48
2022/01/13 00:45:03;;;;;;;28.73;18.50;;;3.90;99.90;;;;;;5031679;28;20467;-48
2022/01/13 00:47:30;;;;;;;31.60;18.60;;;3.90;99.90;;;;;;5039165;28;21204;-48
2022/01/13 00:49:57;;;;;;;32.43;17.30;;;3.90;99.90;;;;;;5032009;28;20829;-48
2022/01/13 00:52:24;;;;;;;26.40;16.20;;;3.90;99.90;;;;;;5030294;28;20478;-49
2022/01/13 00:54:53;;;;;;;32.70;18.70;;;3.90;99.90;;;;;;5030956;28;20473;-52
2022/01/13 00:57:19;;;;;;;31.20;18.80;;;3.90;99.90;;;;;;5031980;28;20489;-52
2022/01/13 00:59:46;;;;;;;31.40;17.80;;;3.90;99.90;;;;;;5030518;28;20494;-53
2022/01/13 01:02:12;;;;;;;29.73;18.87;;;3.90;99.90;;;;;;5030956;28;20574;-52
2022/01/13 01:04:39;;;;;;;28.03;18.20;;;3.90;99.90;;;;;;5029800;28;20549;-52
2022/01/13 01:07:06;;;;;;;31.70;18.50;;;3.90;99.90;;;;;;5031391;28;20462;-52
2022/01/13 01:09:39;;;;;;;35.70;17.90;;;3.90;99.90;;;;;;5031349;28;20537;-52
2022/01/13 01:12:09;;;;;;;25.70;17.00;;;3.90;99.90;;;;;;5031960;28;20526;-51
2022/01/13 01:14:39;;;;;;;30.93;18.47;;;4.00;99.90;;;;;;5030071;28;20462;-52
2022/01/13 01:17:06;;;;;;;25.33;17.03;;;3.90;99.90;;;;;;5031337;28;20498;-51
2022/01/13 01:19:33;;;;;;;31.97;18.27;;;4.00;99.90;;;;;;5029012;28;21028;-52
2022/01/13 01:22:35;;;;;;;31.17;19.90;;;4.00;99.90;;;;;;5027073;28;20486;-53
2022/01/13 01:25:31;;;;;;;27.43;17.77;;;4.00;99.90;;;;;;5025744;28;20470;-52
2022/01/13 01:28:01;;;;;;;33.43;20.27;;;4.00;99.90;;;;;;5031834;28;20454;-53
2022/01/13 01:30:33;;;;;;;31.00;18.90;;;4.00;99.90;;;;;;5030464;28;20545;-52
2022/01/13 01:32:59;;;;;;;35.27;18.60;;;4.00;99.90;;;;;;5029822;28;21003;-53
2022/01/13 01:35:27;;;;;;;38.17;21.47;;;4.10;99.90;;;;;;5028311;28;20494;-53
2022/01/13 01:37:55;;;;;;;30.07;18.30;;;4.10;99.90;;;;;;5023975;28;20498;-53
2022/01/13 01:40:23;;;;;;;26.47;18.80;;;4.10;99.90;;;;;;5027477;28;21040;-53
2022/01/13 01:42:50;;;;;;;31.00;18.53;;;4.10;99.90;;;;;;5028746;28;20566;-53
2022/01/13 01:45:19;;;;;;;27.13;18.53;;;4.10;99.90;;;;;;5028810;28;20466;-53
2022/01/13 01:47:50;;;;;;;37.40;20.30;;;4.10;99.90;;;;;;5030058;28;20462;-52
2022/01/13 01:50:19;;;;;;;28.00;18.60;;;4.10;99.90;;;;;;5029679;28;20459;-53
2022/01/13 01:52:47;;;;;;;28.20;18.80;;;4.10;99.90;;;;;;5029863;28;20562;-52
2022/01/13 01:55:14;;;;;;;29.00;18.43;;;4.10;99.90;;;;;;5030395;28;20467;-52
2022/01/13 01:57:42;;;;;;;30.50;18.50;;;4.10;99.90;;;;;;5030712;28;20514;-52
2022/01/13 02:00:12;;;;;;;31.37;17.70;;;4.10;99.90;;;;;;5030855;28;20509;-52
2022/01/13 02:02:42;;;;;;;30.03;18.33;;;4.10;99.90;;;;;;5030663;28;20525;-52
2022/01/13 02:05:09;;;;;;;29.00;17.27;;;4.10;99.90;;;;;;5027916;28;20550;-52
2022/01/13 02:07:36;;;;;;;28.90;18.63;;;4.10;99.90;;;;;;5029983;28;20491;-52
2022/01/13 02:10:03;;;;;;;33.73;20.00;;;4.10;99.90;;;;;;5028861;28;20516;-52
2022/01/13 02:12:36;;;;;;;27.87;18.17;;;4.10;99.90;;;;;;5031029;28;20562;-52
2022/01/13 02:15:28;;;;;;;32.63;19.27;;;4.10;99.90;;;;;;5029773;28;20490;-53
2022/01/13 02:17:58;;;;;;;31.40;18.30;;;4.10;99.90;;;;;;5028391;28;21019;-52
2022/01/13 02:20:41;;;;;;;29.17;17.23;;;4.20;99.90;;;;;;5028684;28;20486;-52
2022/01/13 02:23:08;;;;;;;29.23;17.43;;;4.10;99.90;;;;;;5031303;28;20502;-52
2022/01/13 02:25:34;;;;;;;27.20;18.90;;;4.10;99.90;;;;;;5030888;28;21015;-53
2022/01/13 02:28:01;;;;;;;27.77;17.17;;;4.10;99.90;;;;;;5029945;28;20914;-52
2022/01/13 02:30:27;;;;;;;26.43;18.37;;;4.10;99.90;;;;;;5030110;28;20520;-53
2022/01/13 02:32:54;;;;;;;28.77;17.63;;;4.10;99.90;;;;;;5034118;28;20586;-53
2022/01/13 02:35:21;;;;;;;28.60;17.70;;;4.10;99.90;;;;;;5034198;28;20557;-52
2022/01/13 02:37:48;;;;;;;26.70;17.13;;;4.10;99.90;;;;;;5027838;28;20504;-52
2022/01/13 02:40:16;;;;;;;28.90;17.23;;;4.10;99.90;;;;;;5033839;28;20494;-52
2022/01/13 02:42:42;;;;;;;26.00;17.80;;;4.10;99.90;;;;;;5030452;28;20521;-53
2022/01/13 02:45:16;;;;;;;28.57;16.50;;;4.10;99.90;;;;;;5033116;28;20501;-52
2022/01/13 02:48:11;;;;;;;29.37;18.20;;;4.00;99.90;;;;;;5032535;28;20557;-51
2022/01/13 02:50:40;;;;;;;27.17;16.87;;;4.00;99.90;;;;;;5030555;28;20462;-56
2022/01/13 02:53:08;;;;;;;24.63;16.13;;;4.00;99.90;;;;;;5034021;28;20573;-51
2022/01/13 02:55:35;;;;;;;27.10;17.20;;;4.00;99.90;;;;;;5034093;28;20494;-53
2022/01/13 02:58:02;;;;;;;30.90;17.90;;;4.10;99.90;;;;;;5029633;28;20586;-51
2022/01/13 03:00:28;;;;;;;24.17;15.63;;;4.10;99.90;;;;;;5032117;28;20466;-52
2022/01/13 03:02:55;;;;;;;30.50;17.53;;;4.00;99.90;;;;;;5032122;28;20914;-52
2022/01/13 03:05:22;;;;;;;30.60;17.20;;;4.10;99.90;;;;;;5031245;28;20491;-52
2022/01/13 03:07:49;;;;;;;28.80;16.73;;;4.10;99.90;;;;;;5030942;28;20500;-51
2022/01/13 03:10:17;;;;;;;25.70;16.60;;;4.10;99.90;;;;;;5030348;28;20458;-52
2022/01/13 03:12:45;;;;;;;33.13;15.20;;;4.10;98.10;;;;;;5033654;28;20513;-52
2022/01/13 03:15:12;;;;;;;30.83;17.20;;;4.10;90.90;;;;;;5033926;28;20467;-52
2022/01/13 03:17:38;;;;;;;23.73;15.73;;;4.10;97.50;;;;;;5031447;28;20899;-52
2022/01/13 03:20:06;;;;;;;27.03;16.20;;;4.10;97.60;;;;;;5031697;28;20494;-51
2022/01/13 03:22:33;;;;;;;28.67;16.00;;;4.10;94.40;;;;;;5034250;28;20518;-52
2022/01/13 03:25:00;;;;;;;31.60;16.80;;;4.10;96.10;;;;;;5035019;28;20486;-53
2022/01/13 03:27:34;;;;;;;23.33;16.50;;;4.00;99.90;;;;;;5033459;28;20459;-53
2022/01/13 03:30:03;;;;;;;31.40;16.53;;;4.10;92.20;;;;;;5033162;28;20501;-53
2022/01/13 03:32:29;;;;;;;28.33;17.07;;;4.10;96.30;;;;;;5033208;28;20507;-52
2022/01/13 03:34:56;;;;;;;29.63;16.87;;;4.00;94.40;;;;;;5033049;28;21032;-52
2022/01/13 03:37:23;;;;;;;25.03;17.23;;;4.10;88.70;;;;;;5032614;28;20462;-53
2022/01/13 03:39:50;;;;;;;26.17;15.30;;;4.00;92.30;;;;;;5031851;28;20509;-52
2022/01/13 03:42:17;;;;;;;30.23;16.57;;;4.00;92.30;;;;;;5033362;28;20509;-52
2022/01/13 03:44:44;;;;;;;31.37;18.17;;;4.00;87.10;;;;;;5031457;28;20520;-52
2022/01/13 03:47:13;;;;;;;29.03;18.33;;;4.00;84.00;;;;;;5026191;28;20509;-52
2022/01/13 03:49:40;;;;;;;26.67;16.87;;;4.00;85.10;;;;;;5032839;28;20855;-51
2022/01/13 03:52:42;;;;;;;34.60;19.37;;;4.00;82.60;;;;;;5032041;28;20517;-52
2022/01/13 03:56:19;;;;;;;44.83;19.60;;;4.00;77.20;;;;;;5031085;28;20831;-53
2022/01/13 03:59:32;;;;;;;35.20;19.60;;;4.00;74.00;;;;;;5015694;28;20515;-51
2022/01/13 04:02:05;;;;;;;29.20;17.70;;;4.00;70.90;;;;;;5032415;28;20509;-53
2022/01/13 04:04:34;;;;;;;38.27;21.97;;;4.00;67.60;;;;;;5033161;28;20466;-51
2022/01/13 04:07:10;;;;;;;30.40;19.37;;;4.00;69.40;;;;;;5032068;28;20520;-52
2022/01/13 04:10:26;;;;;;;32.27;19.00;;;4.00;61.80;;;;;;5027623;28;20497;-52
2022/01/13 04:12:53;;;;;;;36.13;18.80;;;4.00;55.90;;;;;;5023090;28;20481;-53
2022/01/13 04:15:21;;;;;;;33.87;19.90;;;3.90;47.80;;;;;;5032745;28;20481;-52
2022/01/13 04:17:49;;;;;;;31.93;18.80;;;3.90;50.50;;;;;;5031519;28;20482;-52
2022/01/13 04:20:16;;;;;;;46.77;19.60;;;3.90;46.10;;;;;;5032725;28;20522;-51
2022/01/13 04:22:43;;;;;;;30.20;19.57;;;3.90;47.70;;;;;;5030288;28;20983;-52
2022/01/13 04:25:09;;;;;;;34.57;19.90;;;3.90;31.90;;;;;;5032969;28;20522;-52
2022/01/13 04:27:42;;;;;;;40.80;22.60;;;3.90;34.40;;;;;;5032353;28;20479;-52
2022/01/13 04:32:56;;;;;;;37.97;21.63;;;3.90;30.10;;;;;;5031858;28;21032;-53
2022/01/13 04:35:22;;;;;;;38.30;19.03;;;3.90;27.10;;;;;;5032270;28;20494;-52
2022/01/13 04:37:49;;;;;;;31.10;17.93;;;3.90;25.70;;;;;;5024148;28;20574;-52
2022/01/13 04:40:15;;;;;;;29.17;18.70;;;4.00;20.30;;;;;;5031957;28;20486;-52
2022/01/13 04:42:43;;;;;;;29.97;18.20;;;4.00;99.90;;;;;;5042642;23;20548;-55
2022/01/13 04:45:10;;;;;;;32.63;20.43;;;3.90;22.80;;;;;;5031443;28;20541;-55
2022/01/13 04:47:37;;;;;;;28.07;18.60;;;4.00;98.60;;;;;;5013570;28;20502;-54
2022/01/13 04:50:06;;;;;;;29.00;18.30;;;4.00;99.90;;;;;;5025711;28;20498;-55
2022/01/13 04:52:33;;;;;;;29.77;18.67;;;4.00;99.90;;;;;;5025974;28;20545;-54
2022/01/13 04:55:07;;;;;;;31.70;19.33;;;4.00;99.90;;;;;;5006038;28;20881;-56
2022/01/13 04:57:34;;;;;;;35.00;19.67;;;4.00;86.60;;;;;;5011197;28;20459;-54
2022/01/13 05:00:00;;;;;;;35.53;18.63;;;4.00;99.90;;;;;;5013183;28;20491;-54
2022/01/13 05:02:27;;;;;;;25.90;17.93;;;4.00;23.30;;;;;;5015874;28;20495;-55
2022/01/13 05:04:53;;;;;;;29.47;17.20;;;3.90;94.10;;;;;;5017055;28;20498;-54
2022/01/13 05:07:22;;;;;;;24.80;17.10;;;4.00;99.90;;;;;;5000385;28;20495;-54
2022/01/13 05:09:48;;;;;;;29.20;17.87;;;4.00;99.90;;;;;;5011845;28;20479;-54
2022/01/13 05:12:16;;;;;;;25.37;16.40;;;4.00;99.90;;;;;;5010872;28;20498;-54
2022/01/13 05:14:44;;;;;;;25.57;17.77;;;4.00;99.90;;;;;;5013593;28;20674;-55
2022/01/13 05:17:23;;;;;;;25.67;17.47;;;4.00;99.90;;;;;;5012919;28;20451;-54
2022/01/13 05:20:09;;;;;;;28.60;17.53;;;3.90;77.90;;;;;;5005626;28;20566;-54
2022/01/13 05:22:37;;;;;;;30.83;17.87;;;3.90;99.90;;;;;;5010366;28;20499;-53
2022/01/13 05:25:05;;;;;;;24.30;17.70;;;4.00;99.90;;;;;;5005823;28;20495;-54
2022/01/13 05:27:31;;;;;;;26.90;16.40;;;4.00;99.90;;;;;;5011809;28;20475;-53
2022/01/13 05:30:01;;;;;;;23.80;16.50;;;4.00;99.90;;;;;;5011283;28;20474;-54
2022/01/13 05:32:27;;;;;;;28.80;17.10;;;4.00;99.90;;;;;;5010699;28;20470;-53
2022/01/13 05:34:54;;;;;;;25.80;17.80;;;4.00;99.90;;;;;;5003830;28;20475;-54
2022/01/13 05:37:21;;;;;;;26.50;18.47;;;4.00;99.90;;;;;;5008522;28;20520;-54
2022/01/13 05:39:49;;;;;;;25.57;17.10;;;4.00;99.20;;;;;;5007505;28;20507;-55
2022/01/13 05:42:15;;;;;;;25.60;16.30;;;3.90;99.90;;;;;;5012600;28;20468;-55
2022/01/13 05:44:42;;;;;;;26.93;16.93;;;4.00;99.90;;;;;;5020149;28;20512;-55
2022/01/13 05:47:12;;;;;;;26.83;15.83;;;4.00;99.90;;;;;;5003987;28;20451;-54
2022/01/13 05:49:40;;;;;;;26.77;16.60;;;4.00;99.90;;;;;;5009255;28;22461;-55
2022/01/13 05:52:07;;;;;;;24.50;16.30;;;4.00;99.90;;;;;;4999512;28;20466;-54
2022/01/13 05:54:34;;;;;;;27.07;17.13;;;4.00;99.90;;;;;;5008663;28;21066;-54
2022/01/13 05:57:02;;;;;;;23.07;16.90;;;4.00;99.90;;;;;;5009909;28;20487;-56
2022/01/13 05:59:28;;;;;;;21.53;15.53;;;4.00;99.90;;;;;;4999682;28;20495;-57
2022/01/13 06:01:55;;;;;;;23.23;15.77;;;4.00;99.90;;;;;;5007826;28;20976;-58
2022/01/13 06:04:21;;;;;;;28.07;16.07;;;4.00;99.90;;;;;;5010653;28;20848;-57
2022/01/13 06:06:48;;;;;;;22.27;16.17;;;4.00;99.90;;;;;;5008259;28;20459;-57
2022/01/13 06:09:15;;;;;;;25.77;16.97;;;4.10;99.90;;;;;;5010032;28;20545;-57
2022/01/13 06:11:51;;;;;;;25.97;16.43;;;4.00;99.90;;;;;;5010173;28;20521;-57
2022/01/13 06:14:19;;;;;;;30.40;18.33;;;4.00;99.90;;;;;;5011773;28;20482;-58
2022/01/13 06:16:45;;;;;;;27.83;17.80;;;4.00;99.90;;;;;;5010667;28;21008;-58
2022/01/13 06:19:12;;;;;;;26.57;16.00;;;4.00;22.70;;;;;;5009617;28;20617;-58
2022/01/13 06:21:39;;;;;;;26.63;16.90;;;4.00;98.30;;;;;;5008101;28;20555;-58
2022/01/13 06:24:06;;;;;;;26.43;16.60;;;4.00;22.70;;;;;;5011183;28;21086;-57
2022/01/13 06:26:32;;;;;;;26.43;17.43;;;4.00;71.70;;;;;;5013272;28;20521;-58
2022/01/13 06:28:59;;;;;;;36.33;16.63;;;4.00;99.90;;;;;;5002850;28;20481;-58
2022/01/13 06:31:27;;;;;;;23.13;16.90;;;4.00;20.20;;;;;;5010961;28;20464;-57
2022/01/13 06:33:53;;;;;;;22.70;16.10;;;4.00;99.90;;;;;;5010790;28;21008;-57
2022/01/13 06:36:20;;;;;;;29.07;18.83;;;3.90;99.90;;;;;;5007538;28;20551;-57
2022/01/13 06:38:48;;;;;;;28.17;18.37;;;4.00;93.70;;;;;;5006373;28;21079;-58
2022/01/13 06:41:15;;;;;;;25.23;17.17;;;3.90;99.90;;;;;;5009966;28;20472;-61
2022/01/13 06:43:41;;;;;;;26.40;16.77;;;4.00;99.90;;;;;;5011790;28;21004;-57
2022/01/13 06:46:08;;;;;;;26.90;16.60;;;4.00;99.90;;;;;;5010872;28;20538;-59
2022/01/13 06:48:36;;;;;;;28.07;18.10;;;3.90;99.90;;;;;;5010811;28;20491;-58
2022/01/13 06:51:02;;;;;;;23.77;17.30;;;3.90;99.90;;;;;;5015765;28;20526;-58
2022/01/13 06:53:29;;;;;;;29.40;18.30;;;4.00;99.90;;;;;;5013175;28;20519;-57
2022/01/13 06:55:56;;;;;;;25.60;16.83;;;4.00;99.90;;;;;;5011794;28;20490;-55
2022/01/13 06:58:22;;;;;;;23.90;17.00;;;4.00;99.90;;;;;;5012984;28;21024;-55
2022/01/13 07:00:49;;;;;;;25.20;17.30;;;4.00;99.90;;;;;;5012135;28;21007;-54
2022/01/13 07:03:15;;;;;;;29.53;17.97;;;4.00;99.90;;;;;;5011652;28;20498;-55
2022/01/13 07:05:43;;;;;;;22.50;16.03;;;3.90;99.90;;;;;;5010997;28;20525;-55
2022/01/13 07:08:11;;;;;;;27.73;17.60;;;4.00;99.90;;;;;;5006751;28;20491;-54
2022/01/13 07:10:37;;;;;;;29.00;17.10;;;4.00;99.90;;;;;;5005242;28;20463;-55
2022/01/13 07:13:04;;;;;;;28.10;18.10;;;4.00;99.90;;;;;;5010439;28;21004;-55
2022/01/13 07:15:32;;;;;;;25.77;17.70;;;4.00;99.90;;;;;;5011536;28;21087;-55
2022/01/13 07:17:59;;;;;;;24.90;16.97;;;4.00;99.90;;;;;;5009652;28;20495;-55
2022/01/13 07:20:27;;;;;;;31.70;19.40;;;4.00;99.90;;;;;;5009732;28;20487;-54
2022/01/13 07:22:55;;;;;;;25.60;17.00;;;4.00;99.90;;;;;;5009792;28;20558;-56
2022/01/13 07:25:22;;;;;;;28.53;19.30;;;4.00;99.90;;;;;;5001976;28;20538;-55
2022/01/13 07:27:48;;;;;;;28.07;18.10;;;4.00;99.90;;;;;;5011989;28;20459;-55
2022/01/13 07:30:15;;;;;;;28.40;18.60;;;4.00;99.90;;;;;;5004925;28;20548;-55
2022/01/13 07:32:42;;;;;;;28.77;17.93;;;4.00;99.90;;;;;;5008196;28;20542;-54
2022/01/13 07:35:10;;;;;;;33.97;19.47;;;4.00;99.90;;;;;;5014099;28;20945;-56
2022/01/13 07:37:37;;;;;;;30.17;18.30;;;4.00;99.90;;;;;;5009014;28;20974;-55
2022/01/13 07:40:08;;;;;;;27.83;17.93;;;4.00;99.90;;;;;;5011911;28;20529;-54
2022/01/13 07:42:36;;;;;;;26.83;17.40;;;4.00;99.90;;;;;;5010030;28;20628;-56
2022/01/13 07:45:03;;;;;;;27.13;18.33;;;4.00;99.90;;;;;;5006004;28;20841;-57
2022/01/13 07:47:30;;;;;;;26.63;18.13;;;4.00;99.90;;;;;;5006178;28;20495;-58
2022/01/13 07:49:56;;;;;;;31.80;19.50;;;4.10;99.90;;;;;;5012485;28;20549;-57
2022/01/13 07:52:25;;;;;;;26.13;17.13;;;4.10;99.90;;;;;;5009418;28;20915;-57
2022/01/13 07:54:52;;;;;;;27.47;17.70;;;4.10;99.90;;;;;;5005063;28;20494;-57
2022/01/13 07:57:20;;;;;;;35.50;17.40;;;4.10;99.90;;;;;;5006181;28;20526;-57
2022/01/13 07:59:46;;;;;;;28.70;18.73;;;4.10;99.90;;;;;;5004287;28;20574;-58
2022/01/13 08:02:13;;;;;;;27.67;18.20;;;4.10;99.90;;;;;;5006827;28;20487;-56
2022/01/13 08:04:39;;;;;;;32.07;18.60;;;4.10;99.90;;;;;;5004863;28;20316;-56
2022/01/13 08:07:06;;;;;;;27.17;17.90;;;4.10;99.90;;;;;;5010390;28;20550;-57
2022/01/13 08:09:33;;;;;;;29.73;19.77;;;4.10;99.90;;;;;;5004822;28;20898;-57
2022/01/13 08:11:59;;;;;;;24.47;17.07;;;4.20;99.90;;;;;;5011550;28;20487;-56
2022/01/13 08:14:27;;;;;;;27.40;18.40;;;4.20;99.90;;;;;;5023673;28;20476;-58
2022/01/13 08:16:57;;;;;;;27.93;17.17;;;4.20;99.90;;;;;;5017423;28;20492;-58
2022/01/13 08:22:17;;;;;;;28.87;19.10;;;4.20;99.90;;;;;;4973243;28;20456;-56
2022/01/13 08:24:44;;;;;;;28.63;17.87;;;4.20;99.90;;;;;;5004293;28;20571;-56
2022/01/13 08:27:11;;;;;;;30.93;17.97;;;4.20;99.90;;;;;;5004254;28;20558;-56
2022/01/13 08:29:39;;;;;;;33.80;18.23;;;4.30;99.90;;;;;;5005998;28;20488;-57
2022/01/13 08:32:06;;;;;;;28.77;18.30;;;4.30;99.90;;;;;;5005869;28;20554;-56
2022/01/13 08:34:33;;;;;;;27.93;17.80;;;4.30;99.90;;;;;;5001299;28;20567;-56
2022/01/13 08:36:59;;;;;;;31.20;18.40;;;4.30;99.90;;;;;;4999003;28;20547;-57
2022/01/13 08:39:26;;;;;;;31.53;19.50;;;4.20;99.90;;;;;;5005643;28;20563;-57
2022/01/13 08:41:53;;;;;;;30.10;19.17;;;4.30;99.90;;;;;;5017637;28;20492;-57
2022/01/13 08:44:19;;;;;;;30.13;18.97;;;4.20;99.90;;;;;;5002505;28;20491;-55
2022/01/13 08:46:47;;;;;;;28.07;17.57;;;4.20;99.90;;;;;;5003387;28;20510;-57
2022/01/13 08:49:14;;;;;;;30.83;18.87;;;4.30;99.90;;;;;;5006096;28;20539;-56
2022/01/13 08:51:41;;;;;;;29.37;19.03;;;4.20;96.20;;;;;;4998430;28;20590;-56
2022/01/13 08:54:07;;;;;;;30.93;19.03;;;4.20;99.90;;;;;;5006952;28;20515;-56
2022/01/13 08:56:34;;;;;;;28.93;19.43;;;4.30;99.90;;;;;;5008626;28;20598;-56
2022/01/13 08:59:01;;;;;;;31.80;19.77;;;4.20;99.90;;;;;;5011892;28;20448;-57
2022/01/13 09:01:29;;;;;;;29.83;19.47;;;4.30;99.90;;;;;;5005820;28;20502;-56
2022/01/13 09:03:57;;;;;;;30.60;17.77;;;4.30;99.90;;;;;;5008657;28;20546;-57
2022/01/13 09:06:24;;;;;;;29.17;19.00;;;4.30;99.90;;;;;;4998522;28;20500;-56
2022/01/13 09:08:50;;;;;;;25.40;18.33;;;4.40;99.90;;;;;;5010223;28;20536;-56
2022/01/13 09:11:17;;;;;;;32.50;21.00;;;4.40;99.90;;;;;;5009444;28;20494;-56
2022/01/13 09:13:43;;;;;;;30.17;18.73;;;4.30;73.10;;;;;;5007147;28;20570;-57
2022/01/13 09:16:16;;;;;;;29.60;18.73;;;4.30;99.90;;;;;;5009256;28;20464;-58
2022/01/13 09:19:07;;;;;;;32.90;19.23;;;4.40;99.90;;;;;;5005249;28;20509;-57
2022/01/13 09:21:38;;;;;;;36.23;22.03;;;4.40;20.90;;;;;;5014527;28;20523;-56
2022/01/13 09:24:05;;;;;;;34.50;20.60;;;4.40;23.10;;;;;;5003772;28;20479;-56
2022/01/13 09:26:32;;;;;;;39.33;20.93;;;4.40;20.60;;;;;;5004242;28;20492;-56
2022/01/13 09:28:58;;;;;;;35.80;19.80;;;4.40;23.00;;;;;;5001983;28;20513;-56
2022/01/13 09:31:26;;;;;;;33.53;20.30;;;4.40;88.20;;;;;;5003501;28;20503;-56
2022/01/13 09:33:53;;;;;;;34.03;22.00;;;4.40;29.00;;;;;;5007766;28;20475;-56
2022/01/13 09:36:19;;;;;;;36.37;19.67;;;4.40;42.90;;;;;;5010273;28;20476;-56
2022/01/13 09:38:48;;;;;;;33.00;20.00;;;4.40;33.30;;;;;;5006020;28;20550;-56
2022/01/13 09:41:15;;;;;;;33.00;20.10;;;4.50;30.10;;;;;;5001364;28;20582;-56
2022/01/13 09:43:44;;;;;;;34.70;19.77;;;4.40;38.90;;;;;;5006501;28;20586;-56
2022/01/13 09:46:11;;;;;;;34.10;19.43;;;4.40;37.10;;;;;;5008759;28;20546;-58
2022/01/13 09:48:39;;;;;;;31.90;19.60;;;4.40;36.90;;;;;;5003960;28;20488;-56
2022/01/13 09:51:06;;;;;;;31.17;18.60;;;4.40;34.70;;;;;;5009240;28;20439;-56
2022/01/13 09:53:33;;;;;;;28.50;18.27;;;4.50;28.30;;;;;;4999753;28;20508;-56
2022/01/13 09:56:01;;;;;;;29.63;18.80;;;4.50;33.20;;;;;;5007909;28;21509;-57
2022/01/13 09:58:27;;;;;;;33.07;19.77;;;4.50;34.70;;;;;;5011099;28;21027;-56
2022/01/13 10:00:54;;;;;;;26.87;16.93;;;4.50;33.70;;;;;;5014840;28;20923;-56
2022/01/13 10:03:26;;;;;;;29.23;18.50;;;4.50;40.00;;;;;;5010994;28;20483;-57
2022/01/13 10:05:55;;;;;;;32.67;18.00;;;4.50;44.20;;;;;;5008822;28;20534;-56
2022/01/13 10:08:22;;;;;;;32.23;18.30;;;4.50;47.30;;;;;;5001151;28;20465;-57
2022/01/13 10:10:50;;;;;;;28.70;19.07;;;4.50;41.80;;;;;;5009256;28;20502;-56
2022/01/13 10:13:29;;;;;;;31.27;17.80;;;4.40;46.20;;;;;;5002943;28;20527;-56
2022/01/13 10:18:43;;;;;;;32.27;20.07;;;4.50;47.20;;;;;;5007548;28;20510;-56
2022/01/13 10:21:12;;;;;;;31.33;18.80;;;4.50;52.90;;;;;;5008440;28;21016;-57
2022/01/13 10:24:02;;;;;;;35.07;20.50;;;4.50;44.90;;;;;;5011357;28;20507;-56
2022/01/13 10:26:30;;;;;;;26.07;17.57;;;4.50;45.80;;;;;;5003182;28;20455;-56
2022/01/13 10:28:58;;;;;;;34.23;18.23;;;4.50;46.80;;;;;;5005057;28;20456;-56
2022/01/13 10:31:43;;;;;;;28.90;17.87;;;4.60;48.00;;;;;;5005851;28;20969;-56
2022/01/13 10:34:17;;;;;;;29.17;18.10;;;4.60;61.80;;;;;;5007518;28;20565;-56
2022/01/13 10:37:00;;;;;;;29.00;16.70;;;4.50;62.00;;;;;;5001842;28;21047;-57
2022/01/13 10:39:51;;;;;;;29.20;17.37;;;4.50;63.10;;;;;;5008783;28;20881;-57
2022/01/13 10:43:06;;;;;;;31.67;17.60;;;4.60;59.60;;;;;;5017859;28;20826;-57
2022/01/13 10:45:34;;;;;;;31.37;17.60;;;4.60;69.30;;;;;;5056618;23;20489;-52
2022/01/13 10:48:03;;;;;;;29.17;17.90;;;4.60;88.00;;;;;;5045400;28;20488;-52
2022/01/13 10:50:32;;;;;;;28.17;18.17;;;4.60;75.30;;;;;;5049833;28;20813;-51
2022/01/13 10:53:05;;;;;;;27.20;17.80;;;4.60;76.70;;;;;;5051943;28;20515;-51
2022/01/13 10:55:35;;;;;;;25.67;17.40;;;4.60;86.40;;;;;;5026337;28;20454;-52
2022/01/13 10:58:03;;;;;;;25.07;16.40;;;4.60;85.10;;;;;;5026848;28;20487;-50
2022/01/13 11:00:33;;;;;;;28.77;16.57;;;4.60;87.70;;;;;;5024415;28;20518;-52
2022/01/13 11:03:04;;;;;;;27.80;17.10;;;4.60;99.90;;;;;;5027409;28;20466;-51
2022/01/13 11:05:34;;;;;;;31.00;16.90;;;4.60;96.50;;;;;;5031459;28;20498;-51
2022/01/13 11:08:04;;;;;;;26.90;17.80;;;4.70;95.70;;;;;;5027381;28;20572;-51
2022/01/13 11:10:31;;;;;;;30.50;16.40;;;4.70;98.20;;;;;;5028862;28;20964;-52
2022/01/13 11:13:01;;;;;;;26.30;17.27;;;4.70;99.90;;;;;;5027424;28;20461;-51
2022/01/13 11:15:28;;;;;;;25.47;16.53;;;4.70;99.90;;;;;;5031209;28;20493;-52
2022/01/13 11:17:59;;;;;;;30.70;20.20;;;4.70;99.90;;;;;;5031575;28;20469;-51
2022/01/13 11:20:27;;;;;;;24.43;16.73;;;4.70;99.90;;;;;;5030876;28;20533;-51
2022/01/13 11:22:55;;;;;;;26.00;16.80;;;4.60;99.90;;;;;;5032780;28;20497;-51
2022/01/13 11:25:24;;;;;;;24.00;15.40;;;4.70;99.90;;;;;;5030395;28;20487;-51
2022/01/13 11:27:52;;;;;;;28.40;16.93;;;4.60;99.90;;;;;;5027554;28;20486;-50
2022/01/13 11:30:24;;;;;;;26.60;16.00;;;4.70;97.00;;;;;;5022753;28;21213;-50
2022/01/13 11:32:51;;;;;;;25.53;15.07;;;4.70;99.90;;;;;;5028348;28;20490;-51
2022/01/13 11:35:23;;;;;;;24.67;16.20;;;4.60;99.90;;;;;;5031317;28;20482;-51
2022/01/13 11:37:52;;;;;;;32.10;18.27;;;4.70;99.90;;;;;;5024922;28;20905;-51
2022/01/13 11:40:37;;;;;;;25.83;16.73;;;4.70;99.90;;;;;;5028099;28;20565;-53
2022/01/13 11:43:06;;;;;;;25.07;15.53;;;4.70;99.90;;;;;;5023964;28;20490;-52
2022/01/13 11:45:41;;;;;;;26.47;15.80;;;4.70;99.90;;;;;;5025800;28;20498;-51
2022/01/13 11:48:20;;;;;;;24.00;15.50;;;4.70;99.90;;;;;;5023073;28;20466;-51
2022/01/13 11:50:52;;;;;;;30.10;15.93;;;4.70;99.90;;;;;;5023039;28;20467;-51
2022/01/13 11:53:26;;;;;;;28.90;15.23;;;4.70;99.90;;;;;;5026690;28;20467;-51
2022/01/13 11:55:55;;;;;;;24.07;16.13;;;4.70;99.90;;;;;;5026346;28;20548;-51
2022/01/13 11:58:25;;;;;;;26.93;16.53;;;4.80;99.90;;;;;;5025437;28;20501;-53
2022/01/13 12:00:54;;;;;;;26.50;16.70;;;4.80;99.90;;;;;;5028319;28;20485;-51
2022/01/13 12:03:26;;;;;;;26.17;16.47;;;4.80;99.90;;;;;;5026470;28;20495;-54
2022/01/13 12:05:55;;;;;;;27.23;16.53;;;4.80;99.90;;;;;;5029974;28;20524;-51
2022/01/13 12:08:42;;;;;;;25.67;16.40;;;4.70;99.90;;;;;;5024267;28;20558;-52
2022/01/13 12:11:11;;;;;;;23.77;16.47;;;4.80;99.90;;;;;;5029090;28;20546;-52
2022/01/13 12:13:44;;;;;;;27.13;15.80;;;4.80;99.90;;;;;;5027540;28;20489;-51
2022/01/13 12:16:12;;;;;;;26.20;16.53;;;4.80;99.90;;;;;;5032675;28;20525;-52
2022/01/13 12:19:08;;;;;;;27.07;16.20;;;4.80;99.90;;;;;;5028358;28;20975;-51
2022/01/13 12:21:41;;;;;;;29.90;17.27;;;4.80;99.90;;;;;;5029974;28;20540;-51
2022/01/13 12:24:08;;;;;;;27.83;16.43;;;4.80;99.90;;;;;;5023775;28;20486;-50
2022/01/13 12:26:50;;;;;;;26.90;16.57;;;4.80;99.90;;;;;;5024880;28;20501;-51
2022/01/13 12:29:19;;;;;;;22.20;14.70;;;4.80;99.90;;;;;;5031061;28;20450;-51
2022/01/13 12:31:50;;;;;;;26.90;16.13;;;4.80;99.90;;;;;;5026310;28;22301;-51
2022/01/13 12:34:39;;;;;;;27.53;16.53;;;4.80;99.90;;;;;;5030614;28;20474;-51
2022/01/13 12:37:22;;;;;;;29.57;16.73;;;4.80;99.90;;;;;;5014018;28;20452;-51
2022/01/13 12:39:52;;;;;;;24.33;16.30;;;4.80;99.90;;;;;;5022371;28;20479;-51
2022/01/13 12:42:24;;;;;;;26.07;16.33;;;4.80;99.90;;;;;;5030336;28;20988;-50
2022/01/13 12:47:36;;;;;;;26.73;16.60;;;4.90;99.90;;;;;;5027360;28;20524;-51
2022/01/13 12:50:13;;;;;;;25.70;16.87;;;4.90;99.90;;;;;;5021037;28;20549;-51
2022/01/13 12:52:41;;;;;;;24.77;16.10;;;4.80;99.90;;;;;;5025522;28;20508;-51
2022/01/13 12:55:08;;;;;;;30.30;17.00;;;4.80;99.90;;;;;;5029128;28;20479;-51
2022/01/13 12:57:35;;;;;;;28.30;16.07;;;4.80;99.90;;;;;;5028542;28;20884;-52
2022/01/13 13:00:02;;;;;;;24.53;15.93;;;4.80;99.90;;;;;;5023031;28;20524;-51
2022/01/13 13:02:29;;;;;;;24.13;15.23;;;4.90;99.90;;;;;;5023174;28;20991;-49
2022/01/13 13:04:55;;;;;;;24.13;15.27;;;4.80;99.90;;;;;;5026690;28;20485;-51